sensor_id;sensor_type;location;lat;lon;timestamp;temperature;humidity
42743;DHT22;28397;44.552;-0.848;2023-08-21T00:00:07;24.70;99.90
42743;DHT22;28397;44.552;-0.848;2023-08-21T00:02:33;24.70;99.90
42743;DHT22;28397;44.552;-0.848;2023-08-21T00:04:59;24.60;99.90
42743;DHT22;28397;44.552;-0.848;2023-08-21T00:07:24;24.60;99.90
42743;DHT22;28397;44.552;-0.848;2023-08-21T00:09:50;24.70;99.90
42743;DHT22;28397;44.552;-0.848;2023-08-21T00:12:16;24.90;99.90
42743;DHT22;28397;44.552;-0.848;2023-08-21T00:14:42;25.10;99.90
42743;DHT22;28397;44.552;-0.848;2023-08-21T00:17:08;25.20;99.90
42743;DHT22;28397;44.552;-0.848;2023-08-21T00:19:33;25.20;99.90
42743;DHT22;28397;44.552;-0.848;2023-08-21T00:22:00;25.40;99.90
42743;DHT22;28397;44.552;-0.848;2023-08-21T00:24:26;25.30;99.90
42743;DHT22;28397;44.552;-0.848;2023-08-21T00:26:51;25.30;99.90
42743;DHT22;28397;44.552;-0.848;2023-08-21T00:29:17;25.30;99.90
42743;DHT22;28397;44.552;-0.848;2023-08-21T00:31:43;25.30;99.90
42743;DHT22;28397;44.552;-0.848;2023-08-21T00:34:08;25.10;99.90
42743;DHT22;28397;44.552;-0.848;2023-08-21T00:36:34;25.30;99.90
42743;DHT22;28397;44.552;-0.848;2023-08-21T00:38:59;25.10;99.90
42743;DHT22;28397;44.552;-0.848;2023-08-21T00:41:25;25.10;99.90
42743;DHT22;28397;44.552;-0.848;2023-08-21T00:43:51;25.00;99.90
42743;DHT22;28397;44.552;-0.848;2023-08-21T00:46:17;25.10;99.90
42743;DHT22;28397;44.552;-0.848;2023-08-21T00:48:44;24.90;99.90
42743;DHT22;28397;44.552;-0.848;2023-08-21T00:51:10;24.70;99.90
42743;DHT22;28397;44.552;-0.848;2023-08-21T00:53:37;24.60;99.90
42743;DHT22;28397;44.552;-0.848;2023-08-21T00:56:04;24.50;99.90
42743;DHT22;28397;44.552;-0.848;2023-08-21T00:58:30;24.40;99.90
42743;DHT22;28397;44.552;-0.848;2023-08-21T01:00:55;24.40;99.90
42743;DHT22;28397;44.552;-0.848;2023-08-21T01:03:23;24.30;99.90
42743;DHT22;28397;44.552;-0.848;2023-08-21T01:05:49;24.10;99.90
42743;DHT22;28397;44.552;-0.848;2023-08-21T01:08:21;24.10;99.90
42743;DHT22;28397;44.552;-0.848;2023-08-21T01:11:02;24.00;99.90
42743;DHT22;28397;44.552;-0.848;2023-08-21T01:16:18;24.00;99.90
42743;DHT22;28397;44.552;-0.848;2023-08-21T01:18:46;23.80;99.90
42743;DHT22;28397;44.552;-0.848;2023-08-21T01:21:13;23.70;99.90
42743;DHT22;28397;44.552;-0.848;2023-08-21T01:23:40;23.70;99.90
42743;DHT22;28397;44.552;-0.848;2023-08-21T01:26:07;23.70;99.90
42743;DHT22;28397;44.552;-0.848;2023-08-21T01:28:33;23.80;99.90
42743;DHT22;28397;44.552;-0.848;2023-08-21T01:31:19;24.10;99.90
42743;DHT22;28397;44.552;-0.848;2023-08-21T01:33:51;24.20;99.90
42743;DHT22;28397;44.552;-0.848;2023-08-21T01:36:18;24.30;99.90
42743;DHT22;28397;44.552;-0.848;2023-08-21T01:38:44;24.40;99.90
42743;DHT22;28397;44.552;-0.848;2023-08-21T01:41:10;24.20;99.90
42743;DHT22;28397;44.552;-0.848;2023-08-21T01:43:36;24.40;99.90
42743;DHT22;28397;44.552;-0.848;2023-08-21T01:46:02;24.40;99.90
42743;DHT22;28397;44.552;-0.848;2023-08-21T01:48:28;24.30;99.90
42743;DHT22;28397;44.552;-0.848;2023-08-21T01:50:54;24.30;99.90
42743;DHT22;28397;44.552;-0.848;2023-08-21T01:53:20;24.40;99.90
42743;DHT22;28397;44.552;-0.848;2023-08-21T01:55:46;24.30;99.90
42743;DHT22;28397;44.552;-0.848;2023-08-21T01:58:11;24.40;99.90
42743;DHT22;28397;44.552;-0.848;2023-08-21T02:00:37;24.30;99.90
42743;DHT22;28397;44.552;-0.848;2023-08-21T02:03:03;24.40;99.90
42743;DHT22;28397;44.552;-0.848;2023-08-21T02:05:28;24.30;99.90
42743;DHT22;28397;44.552;-0.848;2023-08-21T02:07:54;24.40;99.90
42743;DHT22;28397;44.552;-0.848;2023-08-21T02:10:20;24.20;99.90
42743;DHT22;28397;44.552;-0.848;2023-08-21T02:12:45;24.10;99.90
42743;DHT22;28397;44.552;-0.848;2023-08-21T02:15:11;24.00;99.90
42743;DHT22;28397;44.552;-0.848;2023-08-21T02:17:37;23.80;99.90
42743;DHT22;28397;44.552;-0.848;2023-08-21T02:20:03;23.70;99.90
42743;DHT22;28397;44.552;-0.848;2023-08-21T02:22:28;23.70;99.90
42743;DHT22;28397;44.552;-0.848;2023-08-21T02:24:54;23.60;99.90
42743;DHT22;28397;44.552;-0.848;2023-08-21T02:27:20;23.50;99.90
42743;DHT22;28397;44.552;-0.848;2023-08-21T02:29:45;23.50;99.90
42743;DHT22;28397;44.552;-0.848;2023-08-21T02:32:11;23.40;99.90
42743;DHT22;28397;44.552;-0.848;2023-08-21T02:34:37;23.40;99.90
42743;DHT22;28397;44.552;-0.848;2023-08-21T02:37:02;23.30;99.90
42743;DHT22;28397;44.552;-0.848;2023-08-21T02:39:28;23.30;99.90
42743;DHT22;28397;44.552;-0.848;2023-08-21T02:41:54;23.30;99.90
42743;DHT22;28397;44.552;-0.848;2023-08-21T02:44:19;23.20;99.90
42743;DHT22;28397;44.552;-0.848;2023-08-21T02:46:45;23.20;99.90
42743;DHT22;28397;44.552;-0.848;2023-08-21T02:49:11;23.40;99.90
42743;DHT22;28397;44.552;-0.848;2023-08-21T02:51:36;23.50;99.90
42743;DHT22;28397;44.552;-0.848;2023-08-21T02:54:02;23.60;99.90
42743;DHT22;28397;44.552;-0.848;2023-08-21T02:56:28;23.80;99.90
42743;DHT22;28397;44.552;-0.848;2023-08-21T02:58:53;24.00;99.90
42743;DHT22;28397;44.552;-0.848;2023-08-21T03:01:19;23.90;99.90
42743;DHT22;28397;44.552;-0.848;2023-08-21T03:03:44;24.00;99.90
42743;DHT22;28397;44.552;-0.848;2023-08-21T03:06:10;24.10;99.90
42743;DHT22;28397;44.552;-0.848;2023-08-21T03:08:36;24.00;99.90
42743;DHT22;28397;44.552;-0.848;2023-08-21T03:11:01;24.10;99.90
42743;DHT22;28397;44.552;-0.848;2023-08-21T03:13:27;24.10;99.90
42743;DHT22;28397;44.552;-0.848;2023-08-21T03:15:53;24.20;99.90
42743;DHT22;28397;44.552;-0.848;2023-08-21T03:18:19;24.10;99.90
42743;DHT22;28397;44.552;-0.848;2023-08-21T03:20:45;24.10;99.90
42743;DHT22;28397;44.552;-0.848;2023-08-21T03:23:12;24.10;99.90
42743;DHT22;28397;44.552;-0.848;2023-08-21T03:25:37;24.10;99.90
42743;DHT22;28397;44.552;-0.848;2023-08-21T03:28:03;23.90;99.90
42743;DHT22;28397;44.552;-0.848;2023-08-21T03:30:29;23.70;99.90
42743;DHT22;28397;44.552;-0.848;2023-08-21T03:32:54;23.60;99.90
42743;DHT22;28397;44.552;-0.848;2023-08-21T03:35:20;23.40;99.90
42743;DHT22;28397;44.552;-0.848;2023-08-21T03:37:46;23.30;99.90
42743;DHT22;28397;44.552;-0.848;2023-08-21T03:40:11;23.30;99.90
42743;DHT22;28397;44.552;-0.848;2023-08-21T03:42:37;23.30;99.90
42743;DHT22;28397;44.552;-0.848;2023-08-21T03:45:03;23.30;99.90
42743;DHT22;28397;44.552;-0.848;2023-08-21T03:47:30;23.30;99.90
42743;DHT22;28397;44.552;-0.848;2023-08-21T03:49:56;23.20;99.90
42743;DHT22;28397;44.552;-0.848;2023-08-21T03:52:21;23.10;99.90
42743;DHT22;28397;44.552;-0.848;2023-08-21T03:54:47;23.10;99.90
42743;DHT22;28397;44.552;-0.848;2023-08-21T03:57:13;23.10;99.90
42743;DHT22;28397;44.552;-0.848;2023-08-21T03:59:38;23.00;99.90
42743;DHT22;28397;44.552;-0.848;2023-08-21T04:02:04;23.10;99.90
42743;DHT22;28397;44.552;-0.848;2023-08-21T04:04:30;23.10;99.90
42743;DHT22;28397;44.552;-0.848;2023-08-21T04:06:55;23.10;99.90
42743;DHT22;28397;44.552;-0.848;2023-08-21T04:09:21;23.30;99.90
42743;DHT22;28397;44.552;-0.848;2023-08-21T04:11:47;23.50;99.90
42743;DHT22;28397;44.552;-0.848;2023-08-21T04:14:12;23.60;99.90
42743;DHT22;28397;44.552;-0.848;2023-08-21T04:16:38;23.70;99.90
42743;DHT22;28397;44.552;-0.848;2023-08-21T04:19:05;23.90;99.90
42743;DHT22;28397;44.552;-0.848;2023-08-21T04:21:31;24.00;99.90
42743;DHT22;28397;44.552;-0.848;2023-08-21T04:23:56;23.90;99.90
42743;DHT22;28397;44.552;-0.848;2023-08-21T04:26:22;23.90;99.90
42743;DHT22;28397;44.552;-0.848;2023-08-21T04:28:47;23.90;99.90
42743;DHT22;28397;44.552;-0.848;2023-08-21T04:31:13;23.90;99.90
42743;DHT22;28397;44.552;-0.848;2023-08-21T04:33:39;23.80;99.90
42743;DHT22;28397;44.552;-0.848;2023-08-21T04:36:05;23.80;99.90
42743;DHT22;28397;44.552;-0.848;2023-08-21T04:38:30;23.80;99.90
42743;DHT22;28397;44.552;-0.848;2023-08-21T04:40:56;23.80;99.90
42743;DHT22;28397;44.552;-0.848;2023-08-21T04:43:30;23.70;99.90
42743;DHT22;28397;44.552;-0.848;2023-08-21T04:45:56;23.50;99.90
42743;DHT22;28397;44.552;-0.848;2023-08-21T04:48:21;23.30;99.90
42743;DHT22;28397;44.552;-0.848;2023-08-21T04:50:47;23.10;99.90
42743;DHT22;28397;44.552;-0.848;2023-08-21T04:53:13;23.00;99.90
42743;DHT22;28397;44.552;-0.848;2023-08-21T04:55:39;22.90;99.90
42743;DHT22;28397;44.552;-0.848;2023-08-21T04:58:06;22.90;99.90
42743;DHT22;28397;44.552;-0.848;2023-08-21T05:00:32;22.80;99.90
42743;DHT22;28397;44.552;-0.848;2023-08-21T05:02:58;22.70;99.90
42743;DHT22;28397;44.552;-0.848;2023-08-21T05:05:24;22.70;99.90
42743;DHT22;28397;44.552;-0.848;2023-08-21T05:07:49;22.60;99.90
42743;DHT22;28397;44.552;-0.848;2023-08-21T05:10:15;22.60;99.90
42743;DHT22;28397;44.552;-0.848;2023-08-21T05:12:41;22.60;99.90
42743;DHT22;28397;44.552;-0.848;2023-08-21T05:15:07;22.50;99.90
42743;DHT22;28397;44.552;-0.848;2023-08-21T05:17:33;22.50;99.90
42743;DHT22;28397;44.552;-0.848;2023-08-21T05:19:58;22.40;99.90
42743;DHT22;28397;44.552;-0.848;2023-08-21T05:22:24;22.50;99.90
42743;DHT22;28397;44.552;-0.848;2023-08-21T05:24:49;22.50;99.90
42743;DHT22;28397;44.552;-0.848;2023-08-21T05:27:15;22.80;99.90
42743;DHT22;28397;44.552;-0.848;2023-08-21T05:29:41;22.90;99.90
42743;DHT22;28397;44.552;-0.848;2023-08-21T05:32:06;23.00;99.90
42743;DHT22;28397;44.552;-0.848;2023-08-21T05:34:32;23.10;99.90
42743;DHT22;28397;44.552;-0.848;2023-08-21T05:36:58;23.20;99.90
42743;DHT22;28397;44.552;-0.848;2023-08-21T05:39:23;23.30;99.90
42743;DHT22;28397;44.552;-0.848;2023-08-21T05:41:49;23.30;99.90
42743;DHT22;28397;44.552;-0.848;2023-08-21T05:44:15;23.30;99.90
42743;DHT22;28397;44.552;-0.848;2023-08-21T05:46:40;23.30;99.90
42743;DHT22;28397;44.552;-0.848;2023-08-21T05:49:06;23.20;99.90
42743;DHT22;28397;44.552;-0.848;2023-08-21T05:51:32;23.30;99.90
42743;DHT22;28397;44.552;-0.848;2023-08-21T05:53:57;23.30;99.90
42743;DHT22;28397;44.552;-0.848;2023-08-21T05:56:23;23.30;99.90
42743;DHT22;28397;44.552;-0.848;2023-08-21T05:58:49;23.30;99.90
42743;DHT22;28397;44.552;-0.848;2023-08-21T06:01:14;23.20;99.90
42743;DHT22;28397;44.552;-0.848;2023-08-21T06:03:40;23.00;99.90
42743;DHT22;28397;44.552;-0.848;2023-08-21T06:06:06;22.80;99.90
42743;DHT22;28397;44.552;-0.848;2023-08-21T06:08:32;22.60;99.90
42743;DHT22;28397;44.552;-0.848;2023-08-21T06:10:57;22.50;99.90
42743;DHT22;28397;44.552;-0.848;2023-08-21T06:13:25;22.40;99.90
42743;DHT22;28397;44.552;-0.848;2023-08-21T06:15:50;22.40;99.90
42743;DHT22;28397;44.552;-0.848;2023-08-21T06:18:16;22.40;99.90
42743;DHT22;28397;44.552;-0.848;2023-08-21T06:20:42;22.40;99.90
42743;DHT22;28397;44.552;-0.848;2023-08-21T06:23:10;22.40;99.90
42743;DHT22;28397;44.552;-0.848;2023-08-21T06:25:36;22.30;99.90
42743;DHT22;28397;44.552;-0.848;2023-08-21T06:28:02;22.30;99.90
42743;DHT22;28397;44.552;-0.848;2023-08-21T06:30:28;22.30;99.90
42743;DHT22;28397;44.552;-0.848;2023-08-21T06:32:54;22.40;99.90
42743;DHT22;28397;44.552;-0.848;2023-08-21T06:35:20;22.40;99.90
42743;DHT22;28397;44.552;-0.848;2023-08-21T06:37:46;22.40;99.90
42743;DHT22;28397;44.552;-0.848;2023-08-21T06:40:12;22.40;99.90
42743;DHT22;28397;44.552;-0.848;2023-08-21T06:42:37;22.40;99.90
42743;DHT22;28397;44.552;-0.848;2023-08-21T06:45:06;22.70;99.90
42743;DHT22;28397;44.552;-0.848;2023-08-21T06:47:33;22.90;99.90
42743;DHT22;28397;44.552;-0.848;2023-08-21T06:49:59;23.20;99.90
42743;DHT22;28397;44.552;-0.848;2023-08-21T06:52:26;23.30;99.90
42743;DHT22;28397;44.552;-0.848;2023-08-21T06:54:51;23.40;99.90
42743;DHT22;28397;44.552;-0.848;2023-08-21T06:57:17;23.50;99.90
42743;DHT22;28397;44.552;-0.848;2023-08-21T06:59:43;23.50;99.90
42743;DHT22;28397;44.552;-0.848;2023-08-21T07:02:09;23.60;99.90
42743;DHT22;28397;44.552;-0.848;2023-08-21T07:04:35;23.60;99.90
42743;DHT22;28397;44.552;-0.848;2023-08-21T07:07:01;23.70;99.90
42743;DHT22;28397;44.552;-0.848;2023-08-21T07:09:27;23.70;99.90
42743;DHT22;28397;44.552;-0.848;2023-08-21T07:11:52;23.80;99.90
42743;DHT22;28397;44.552;-0.848;2023-08-21T07:14:19;23.80;99.90
42743;DHT22;28397;44.552;-0.848;2023-08-21T07:16:45;23.80;99.90
42743;DHT22;28397;44.552;-0.848;2023-08-21T07:19:11;23.90;99.90
42743;DHT22;28397;44.552;-0.848;2023-08-21T07:21:36;23.80;99.90
42743;DHT22;28397;44.552;-0.848;2023-08-21T07:24:03;23.60;99.90
42743;DHT22;28397;44.552;-0.848;2023-08-21T07:26:29;23.40;99.90
42743;DHT22;28397;44.552;-0.848;2023-08-21T07:28:55;23.30;99.90
42743;DHT22;28397;44.552;-0.848;2023-08-21T07:31:21;23.20;99.90
42743;DHT22;28397;44.552;-0.848;2023-08-21T07:33:48;23.20;99.90
42743;DHT22;28397;44.552;-0.848;2023-08-21T07:36:13;23.20;99.90
42743;DHT22;28397;44.552;-0.848;2023-08-21T07:38:43;23.20;99.90
42743;DHT22;28397;44.552;-0.848;2023-08-21T07:41:10;23.30;99.90
42743;DHT22;28397;44.552;-0.848;2023-08-21T07:43:37;23.30;99.90
42743;DHT22;28397;44.552;-0.848;2023-08-21T07:46:12;23.30;99.90
42743;DHT22;28397;44.552;-0.848;2023-08-21T07:48:41;23.40;99.90
42743;DHT22;28397;44.552;-0.848;2023-08-21T07:51:08;23.40;99.90
42743;DHT22;28397;44.552;-0.848;2023-08-21T07:53:33;23.50;99.90
42743;DHT22;28397;44.552;-0.848;2023-08-21T07:56:00;23.50;99.90
42743;DHT22;28397;44.552;-0.848;2023-08-21T07:58:26;23.60;99.90
42743;DHT22;28397;44.552;-0.848;2023-08-21T08:00:52;23.70;99.90
42743;DHT22;28397;44.552;-0.848;2023-08-21T08:03:18;23.80;99.90
42743;DHT22;28397;44.552;-0.848;2023-08-21T08:05:43;24.00;99.90
42743;DHT22;28397;44.552;-0.848;2023-08-21T08:08:09;24.30;99.90
42743;DHT22;28397;44.552;-0.848;2023-08-21T08:10:38;24.50;99.90
42743;DHT22;28397;44.552;-0.848;2023-08-21T08:13:05;24.50;99.90
42743;DHT22;28397;44.552;-0.848;2023-08-21T08:15:30;24.60;99.90
42743;DHT22;28397;44.552;-0.848;2023-08-21T08:17:57;24.80;99.90
42743;DHT22;28397;44.552;-0.848;2023-08-21T08:20:23;24.90;99.90
42743;DHT22;28397;44.552;-0.848;2023-08-21T08:22:49;25.00;99.90
42743;DHT22;28397;44.552;-0.848;2023-08-21T08:25:14;25.00;99.90
42743;DHT22;28397;44.552;-0.848;2023-08-21T08:27:40;25.00;99.90
42743;DHT22;28397;44.552;-0.848;2023-08-21T08:30:06;25.10;99.90
42743;DHT22;28397;44.552;-0.848;2023-08-21T08:32:32;25.20;99.90
42743;DHT22;28397;44.552;-0.848;2023-08-21T08:34:58;25.20;99.90
42743;DHT22;28397;44.552;-0.848;2023-08-21T08:37:24;25.30;99.90
42743;DHT22;28397;44.552;-0.848;2023-08-21T08:39:49;25.40;99.90
42743;DHT22;28397;44.552;-0.848;2023-08-21T08:42:15;25.50;99.90
42743;DHT22;28397;44.552;-0.848;2023-08-21T08:44:43;25.50;99.90
42743;DHT22;28397;44.552;-0.848;2023-08-21T08:47:10;25.40;99.90
42743;DHT22;28397;44.552;-0.848;2023-08-21T08:49:37;25.30;99.90
42743;DHT22;28397;44.552;-0.848;2023-08-21T08:52:04;25.30;99.90
42743;DHT22;28397;44.552;-0.848;2023-08-21T08:54:30;25.30;99.90
42743;DHT22;28397;44.552;-0.848;2023-08-21T08:56:57;25.40;99.90
42743;DHT22;28397;44.552;-0.848;2023-08-21T08:59:22;25.50;99.90
42743;DHT22;28397;44.552;-0.848;2023-08-21T09:01:48;25.50;99.90
42743;DHT22;28397;44.552;-0.848;2023-08-21T09:04:14;25.60;99.90
42743;DHT22;28397;44.552;-0.848;2023-08-21T09:06:40;25.70;99.90
42743;DHT22;28397;44.552;-0.848;2023-08-21T09:09:07;25.70;99.90
42743;DHT22;28397;44.552;-0.848;2023-08-21T09:11:33;25.70;99.90
42743;DHT22;28397;44.552;-0.848;2023-08-21T09:13:59;25.80;99.90
42743;DHT22;28397;44.552;-0.848;2023-08-21T09:16:26;25.90;99.90
42743;DHT22;28397;44.552;-0.848;2023-08-21T09:18:54;26.00;99.90
42743;DHT22;28397;44.552;-0.848;2023-08-21T09:21:20;26.00;99.90
42743;DHT22;28397;44.552;-0.848;2023-08-21T09:23:47;26.10;99.90
42743;DHT22;28397;44.552;-0.848;2023-08-21T09:26:20;26.30;99.90
42743;DHT22;28397;44.552;-0.848;2023-08-21T09:28:50;26.50;99.90
42743;DHT22;28397;44.552;-0.848;2023-08-21T09:31:16;26.80;99.90
42743;DHT22;28397;44.552;-0.848;2023-08-21T09:33:42;27.00;99.90
42743;DHT22;28397;44.552;-0.848;2023-08-21T09:36:11;27.30;99.90
42743;DHT22;28397;44.552;-0.848;2023-08-21T09:38:39;27.30;99.90
42743;DHT22;28397;44.552;-0.848;2023-08-21T09:41:06;27.30;99.90
42743;DHT22;28397;44.552;-0.848;2023-08-21T09:43:32;27.40;99.90
42743;DHT22;28397;44.552;-0.848;2023-08-21T09:45:58;27.30;99.90
42743;DHT22;28397;44.552;-0.848;2023-08-21T09:48:25;27.50;99.90
42743;DHT22;28397;44.552;-0.848;2023-08-21T09:50:54;27.60;99.90
42743;DHT22;28397;44.552;-0.848;2023-08-21T09:53:22;27.70;99.90
42743;DHT22;28397;44.552;-0.848;2023-08-21T09:55:51;27.80;99.90
42743;DHT22;28397;44.552;-0.848;2023-08-21T09:58:19;27.60;99.90
42743;DHT22;28397;44.552;-0.848;2023-08-21T10:00:45;27.80;99.90
42743;DHT22;28397;44.552;-0.848;2023-08-21T10:03:18;27.90;99.90
42743;DHT22;28397;44.552;-0.848;2023-08-21T10:05:44;27.90;99.90
42743;DHT22;28397;44.552;-0.848;2023-08-21T10:08:12;27.80;99.90
42743;DHT22;28397;44.552;-0.848;2023-08-21T10:10:40;27.90;99.90
42743;DHT22;28397;44.552;-0.848;2023-08-21T10:13:07;27.90;99.90
42743;DHT22;28397;44.552;-0.848;2023-08-21T10:15:34;27.80;99.90
42743;DHT22;28397;44.552;-0.848;2023-08-21T10:20:43;27.80;99.90
42743;DHT22;28397;44.552;-0.848;2023-08-21T10:23:09;27.80;99.90
42743;DHT22;28397;44.552;-0.848;2023-08-21T10:25:41;27.70;99.90
42743;DHT22;28397;44.552;-0.848;2023-08-21T10:28:07;27.80;99.90
42743;DHT22;28397;44.552;-0.848;2023-08-21T10:30:33;27.80;99.90
42743;DHT22;28397;44.552;-0.848;2023-08-21T10:32:59;27.80;99.90
42743;DHT22;28397;44.552;-0.848;2023-08-21T10:35:34;27.90;99.90
42743;DHT22;28397;44.552;-0.848;2023-08-21T10:38:16;27.90;99.90
42743;DHT22;28397;44.552;-0.848;2023-08-21T10:41:08;27.90;99.90
42743;DHT22;28397;44.552;-0.848;2023-08-21T10:43:41;27.80;99.90
42743;DHT22;28397;44.552;-0.848;2023-08-21T10:46:11;28.00;99.90
42743;DHT22;28397;44.552;-0.848;2023-08-21T10:48:37;28.30;99.90
42743;DHT22;28397;44.552;-0.848;2023-08-21T10:51:05;28.50;99.90
42743;DHT22;28397;44.552;-0.848;2023-08-21T10:53:32;28.60;99.90
42743;DHT22;28397;44.552;-0.848;2023-08-21T10:56:05;28.80;99.90
42743;DHT22;28397;44.552;-0.848;2023-08-21T10:58:41;29.00;99.90
42743;DHT22;28397;44.552;-0.848;2023-08-21T11:01:07;28.90;99.90
42743;DHT22;28397;44.552;-0.848;2023-08-21T11:03:32;29.00;99.90
42743;DHT22;28397;44.552;-0.848;2023-08-21T11:06:05;28.90;99.90
42743;DHT22;28397;44.552;-0.848;2023-08-21T11:08:32;28.90;99.90
42743;DHT22;28397;44.552;-0.848;2023-08-21T11:10:59;29.00;99.90
42743;DHT22;28397;44.552;-0.848;2023-08-21T11:13:25;29.20;99.90
42743;DHT22;28397;44.552;-0.848;2023-08-21T11:15:59;29.20;99.90
42743;DHT22;28397;44.552;-0.848;2023-08-21T11:18:37;29.30;99.90
42743;DHT22;28397;44.552;-0.848;2023-08-21T11:21:08;29.30;99.90
42743;DHT22;28397;44.552;-0.848;2023-08-21T11:23:43;29.30;99.90
42743;DHT22;28397;44.552;-0.848;2023-08-21T11:26:12;29.30;99.90
42743;DHT22;28397;44.552;-0.848;2023-08-21T11:28:39;29.30;99.90
42743;DHT22;28397;44.552;-0.848;2023-08-21T11:31:06;29.40;99.90
42743;DHT22;28397;44.552;-0.848;2023-08-21T11:33:32;29.40;99.90
42743;DHT22;28397;44.552;-0.848;2023-08-21T11:35:59;29.30;99.90
42743;DHT22;28397;44.552;-0.848;2023-08-21T11:38:26;29.20;99.90
42743;DHT22;28397;44.552;-0.848;2023-08-21T11:43:34;29.10;99.90
42743;DHT22;28397;44.552;-0.848;2023-08-21T11:46:02;29.10;99.90
42743;DHT22;28397;44.552;-0.848;2023-08-21T11:48:28;29.00;99.90
42743;DHT22;28397;44.552;-0.848;2023-08-21T11:50:53;29.00;99.90
42743;DHT22;28397;44.552;-0.848;2023-08-21T11:53:36;28.80;99.90
42743;DHT22;28397;44.552;-0.848;2023-08-21T11:56:13;28.90;99.90
42743;DHT22;28397;44.552;-0.848;2023-08-21T11:58:44;28.80;99.90
42743;DHT22;28397;44.552;-0.848;2023-08-21T12:01:22;28.90;99.90
42743;DHT22;28397;44.552;-0.848;2023-08-21T12:03:48;28.90;99.90
42743;DHT22;28397;44.552;-0.848;2023-08-21T12:06:21;28.80;99.90
42743;DHT22;28397;44.552;-0.848;2023-08-21T12:08:47;28.60;99.90
42743;DHT22;28397;44.552;-0.848;2023-08-21T12:11:12;28.70;99.90
42743;DHT22;28397;44.552;-0.848;2023-08-21T12:13:38;28.80;99.90
42743;DHT22;28397;44.552;-0.848;2023-08-21T12:16:04;29.00;99.90
42743;DHT22;28397;44.552;-0.848;2023-08-21T12:18:30;29.30;99.90
42743;DHT22;28397;44.552;-0.848;2023-08-21T12:20:56;29.50;99.90
42743;DHT22;28397;44.552;-0.848;2023-08-21T12:23:21;29.30;99.90
42743;DHT22;28397;44.552;-0.848;2023-08-21T12:25:47;29.30;99.90
42743;DHT22;28397;44.552;-0.848;2023-08-21T12:28:13;29.40;99.90
42743;DHT22;28397;44.552;-0.848;2023-08-21T12:30:38;29.20;99.90
42743;DHT22;28397;44.552;-0.848;2023-08-21T12:33:04;29.40;99.90
42743;DHT22;28397;44.552;-0.848;2023-08-21T12:35:30;29.30;99.90
42743;DHT22;28397;44.552;-0.848;2023-08-21T12:37:57;29.40;99.90
42743;DHT22;28397;44.552;-0.848;2023-08-21T12:40:23;29.50;99.90
42743;DHT22;28397;44.552;-0.848;2023-08-21T12:42:49;29.50;99.90
42743;DHT22;28397;44.552;-0.848;2023-08-21T12:45:15;29.40;99.90
42743;DHT22;28397;44.552;-0.848;2023-08-21T12:47:41;29.50;99.90
42743;DHT22;28397;44.552;-0.848;2023-08-21T12:50:08;29.50;99.90
42743;DHT22;28397;44.552;-0.848;2023-08-21T12:52:34;29.50;99.90
42743;DHT22;28397;44.552;-0.848;2023-08-21T12:55:00;29.40;99.90
42743;DHT22;28397;44.552;-0.848;2023-08-21T12:57:29;29.30;99.90
42743;DHT22;28397;44.552;-0.848;2023-08-21T12:59:54;29.30;99.90
42743;DHT22;28397;44.552;-0.848;2023-08-21T13:02:20;29.40;99.90
42743;DHT22;28397;44.552;-0.848;2023-08-21T13:04:48;29.30;99.90
42743;DHT22;28397;44.552;-0.848;2023-08-21T13:07:14;29.40;99.90
42743;DHT22;28397;44.552;-0.848;2023-08-21T13:09:39;29.10;99.90
42743;DHT22;28397;44.552;-0.848;2023-08-21T13:12:05;29.10;99.90
42743;DHT22;28397;44.552;-0.848;2023-08-21T13:14:31;29.10;99.90
42743;DHT22;28397;44.552;-0.848;2023-08-21T13:16:57;29.10;99.90
42743;DHT22;28397;44.552;-0.848;2023-08-21T13:19:22;29.00;99.90
42743;DHT22;28397;44.552;-0.848;2023-08-21T13:21:48;29.00;99.90
42743;DHT22;28397;44.552;-0.848;2023-08-21T13:24:13;29.40;99.90
42743;DHT22;28397;44.552;-0.848;2023-08-21T13:26:39;29.30;99.90
42743;DHT22;28397;44.552;-0.848;2023-08-21T13:29:05;29.30;99.90
42743;DHT22;28397;44.552;-0.848;2023-08-21T13:31:32;29.20;99.90
42743;DHT22;28397;44.552;-0.848;2023-08-21T13:33:58;29.30;99.90
42743;DHT22;28397;44.552;-0.848;2023-08-21T13:36:24;29.40;99.90
42743;DHT22;28397;44.552;-0.848;2023-08-21T13:38:49;29.50;99.90
42743;DHT22;28397;44.552;-0.848;2023-08-21T13:41:15;29.70;99.90
42743;DHT22;28397;44.552;-0.848;2023-08-21T13:43:41;29.70;99.90
42743;DHT22;28397;44.552;-0.848;2023-08-21T13:46:06;29.80;99.90
42743;DHT22;28397;44.552;-0.848;2023-08-21T13:48:33;30.10;99.90
42743;DHT22;28397;44.552;-0.848;2023-08-21T13:50:58;30.30;99.90
42743;DHT22;28397;44.552;-0.848;2023-08-21T13:53:24;30.50;99.90
42743;DHT22;28397;44.552;-0.848;2023-08-21T13:55:50;30.30;99.90
42743;DHT22;28397;44.552;-0.848;2023-08-21T13:58:16;30.30;99.90
42743;DHT22;28397;44.552;-0.848;2023-08-21T14:00:42;30.60;99.90
42743;DHT22;28397;44.552;-0.848;2023-08-21T14:03:07;30.80;99.90
42743;DHT22;28397;44.552;-0.848;2023-08-21T14:05:33;30.60;99.90
42743;DHT22;28397;44.552;-0.848;2023-08-21T14:07:59;30.70;99.90
42743;DHT22;28397;44.552;-0.848;2023-08-21T14:10:26;30.70;99.90
42743;DHT22;28397;44.552;-0.848;2023-08-21T14:12:52;30.60;99.90
42743;DHT22;28397;44.552;-0.848;2023-08-21T14:15:18;30.90;99.90
42743;DHT22;28397;44.552;-0.848;2023-08-21T14:17:44;31.10;99.90
42743;DHT22;28397;44.552;-0.848;2023-08-21T14:20:10;31.30;99.90
42743;DHT22;28397;44.552;-0.848;2023-08-21T14:22:39;31.40;99.90
42743;DHT22;28397;44.552;-0.848;2023-08-21T14:25:05;31.60;99.90
42743;DHT22;28397;44.552;-0.848;2023-08-21T14:27:32;31.70;99.90
42743;DHT22;28397;44.552;-0.848;2023-08-21T14:29:58;31.50;99.90
42743;DHT22;28397;44.552;-0.848;2023-08-21T14:32:24;31.50;99.90
42743;DHT22;28397;44.552;-0.848;2023-08-21T14:34:50;31.80;99.90
42743;DHT22;28397;44.552;-0.848;2023-08-21T14:37:18;31.50;99.90
42743;DHT22;28397;44.552;-0.848;2023-08-21T14:39:44;31.60;99.90
42743;DHT22;28397;44.552;-0.848;2023-08-21T14:42:10;31.90;99.90
42743;DHT22;28397;44.552;-0.848;2023-08-21T14:44:36;31.90;99.90
42743;DHT22;28397;44.552;-0.848;2023-08-21T14:47:02;32.00;99.90
42743;DHT22;28397;44.552;-0.848;2023-08-21T14:49:28;32.10;99.90
42743;DHT22;28397;44.552;-0.848;2023-08-21T14:51:54;32.00;99.90
42743;DHT22;28397;44.552;-0.848;2023-08-21T14:54:20;31.80;99.90
42743;DHT22;28397;44.552;-0.848;2023-08-21T14:56:46;31.70;99.90
42743;DHT22;28397;44.552;-0.848;2023-08-21T14:59:12;31.70;99.90
42743;DHT22;28397;44.552;-0.848;2023-08-21T15:01:38;31.70;99.90
42743;DHT22;28397;44.552;-0.848;2023-08-21T15:04:05;31.50;99.90
42743;DHT22;28397;44.552;-0.848;2023-08-21T15:06:31;31.70;99.90
42743;DHT22;28397;44.552;-0.848;2023-08-21T15:08:57;31.80;99.90
42743;DHT22;28397;44.552;-0.848;2023-08-21T15:11:23;31.70;99.90
42743;DHT22;28397;44.552;-0.848;2023-08-21T15:13:48;31.70;99.90
42743;DHT22;28397;44.552;-0.848;2023-08-21T15:16:14;31.70;99.90
42743;DHT22;28397;44.552;-0.848;2023-08-21T15:18:40;31.90;99.90